sensor_id;sensor_type;location;lat;lon;timestamp;P1;durP1;ratioP1;P2;durP2;ratioP2
26052;SDS011;13826;51.186;4.450;2022-08-30T00:01:11;19.08;;;5.97;;
26052;SDS011;13826;51.186;4.450;2022-08-30T00:03:41;15.23;;;5.90;;
26052;SDS011;13826;51.186;4.450;2022-08-30T00:06:11;12.65;;;5.72;;
26052;SDS011;13826;51.186;4.450;2022-08-30T00:08:39;13.95;;;5.60;;
26052;SDS011;13826;51.186;4.450;2022-08-30T00:11:07;19.17;;;6.00;;
26052;SDS011;13826;51.186;4.450;2022-08-30T00:13:36;12.93;;;5.93;;
26052;SDS011;13826;51.186;4.450;2022-08-30T00:16:02;13.00;;;6.35;;
26052;SDS011;13826;51.186;4.450;2022-08-30T00:18:30;16.65;;;5.40;;
26052;SDS011;13826;51.186;4.450;2022-08-30T00:20:59;17.30;;;6.45;;
26052;SDS011;13826;51.186;4.450;2022-08-30T00:23:25;13.13;;;5.68;;
26052;SDS011;13826;51.186;4.450;2022-08-30T00:25:51;15.82;;;5.60;;
26052;SDS011;13826;51.186;4.450;2022-08-30T00:28:17;11.05;;;5.47;;
26052;SDS011;13826;51.186;4.450;2022-08-30T00:30:43;16.35;;;5.50;;
26052;SDS011;13826;51.186;4.450;2022-08-30T00:33:10;12.65;;;5.20;;
26052;SDS011;13826;51.186;4.450;2022-08-30T00:35:38;16.00;;;5.55;;
26052;SDS011;13826;51.186;4.450;2022-08-30T00:38:07;16.48;;;6.00;;
26052;SDS011;13826;51.186;4.450;2022-08-30T00:40:35;16.60;;;5.20;;
26052;SDS011;13826;51.186;4.450;2022-08-30T00:43:02;12.00;;;4.85;;
26052;SDS011;13826;51.186;4.450;2022-08-30T00:45:31;19.98;;;5.93;;
26052;SDS011;13826;51.186;4.450;2022-08-30T00:47:59;12.57;;;5.38;;
26052;SDS011;13826;51.186;4.450;2022-08-30T00:50:31;8.32;;;4.97;;
26052;SDS011;13826;51.186;4.450;2022-08-30T00:53:01;12.05;;;5.80;;
26052;SDS011;13826;51.186;4.450;2022-08-30T00:55:29;15.02;;;5.57;;
26052;SDS011;13826;51.186;4.450;2022-08-30T00:57:57;12.98;;;5.28;;
26052;SDS011;13826;51.186;4.450;2022-08-30T01:00:25;19.80;;;5.78;;
26052;SDS011;13826;51.186;4.450;2022-08-30T01:02:52;12.30;;;5.35;;
26052;SDS011;13826;51.186;4.450;2022-08-30T01:05:18;10.55;;;5.63;;
26052;SDS011;13826;51.186;4.450;2022-08-30T01:07:45;10.93;;;5.40;;
26052;SDS011;13826;51.186;4.450;2022-08-30T01:10:11;12.02;;;5.57;;
26052;SDS011;13826;51.186;4.450;2022-08-30T01:12:39;19.23;;;5.97;;
26052;SDS011;13826;51.186;4.450;2022-08-30T01:15:07;10.82;;;5.10;;
26052;SDS011;13826;51.186;4.450;2022-08-30T01:17:34;12.63;;;5.38;;
26052;SDS011;13826;51.186;4.450;2022-08-30T01:20:03;11.63;;;5.05;;
26052;SDS011;13826;51.186;4.450;2022-08-30T01:25:32;12.98;;;5.65;;
26052;SDS011;13826;51.186;4.450;2022-08-30T01:28:00;13.32;;;5.60;;
26052;SDS011;13826;51.186;4.450;2022-08-30T01:30:30;10.70;;;5.10;;
26052;SDS011;13826;51.186;4.450;2022-08-30T01:32:57;15.27;;;5.72;;
26052;SDS011;13826;51.186;4.450;2022-08-30T01:35:25;11.15;;;6.07;;
26052;SDS011;13826;51.186;4.450;2022-08-30T01:37:52;14.00;;;5.72;;
26052;SDS011;13826;51.186;4.450;2022-08-30T01:40:18;12.73;;;5.90;;
26052;SDS011;13826;51.186;4.450;2022-08-30T01:42:44;11.35;;;5.07;;
26052;SDS011;13826;51.186;4.450;2022-08-30T01:45:11;16.00;;;5.43;;
26052;SDS011;13826;51.186;4.450;2022-08-30T01:47:36;11.93;;;5.68;;
26052;SDS011;13826;51.186;4.450;2022-08-30T01:50:03;18.10;;;6.18;;
26052;SDS011;13826;51.186;4.450;2022-08-30T01:52:31;10.63;;;5.55;;
26052;SDS011;13826;51.186;4.450;2022-08-30T01:54:57;10.48;;;5.35;;
26052;SDS011;13826;51.186;4.450;2022-08-30T01:57:23;13.23;;;5.88;;
26052;SDS011;13826;51.186;4.450;2022-08-30T01:59:51;17.27;;;5.30;;
26052;SDS011;13826;51.186;4.450;2022-08-30T02:02:18;11.88;;;5.32;;
26052;SDS011;13826;51.186;4.450;2022-08-30T02:04:46;11.73;;;4.85;;
26052;SDS011;13826;51.186;4.450;2022-08-30T02:07:13;10.00;;;4.97;;
26052;SDS011;13826;51.186;4.450;2022-08-30T02:09:39;16.77;;;4.90;;
26052;SDS011;13826;51.186;4.450;2022-08-30T02:12:06;9.82;;;5.03;;
26052;SDS011;13826;51.186;4.450;2022-08-30T02:14:33;12.43;;;5.13;;
26052;SDS011;13826;51.186;4.450;2022-08-30T02:17:00;14.32;;;5.40;;
26052;SDS011;13826;51.186;4.450;2022-08-30T02:19:28;15.02;;;5.82;;
26052;SDS011;13826;51.186;4.450;2022-08-30T02:21:54;15.27;;;5.32;;
26052;SDS011;13826;51.186;4.450;2022-08-30T02:24:19;15.73;;;6.40;;
26052;SDS011;13826;51.186;4.450;2022-08-30T02:26:45;10.00;;;5.82;;
26052;SDS011;13826;51.186;4.450;2022-08-30T02:29:11;16.30;;;5.75;;
26052;SDS011;13826;51.186;4.450;2022-08-30T02:31:36;14.52;;;5.55;;
26052;SDS011;13826;51.186;4.450;2022-08-30T02:34:02;10.25;;;5.13;;
26052;SDS011;13826;51.186;4.450;2022-08-30T02:36:28;11.73;;;5.28;;
26052;SDS011;13826;51.186;4.450;2022-08-30T02:38:54;10.25;;;5.40;;
26052;SDS011;13826;51.186;4.450;2022-08-30T02:41:20;9.73;;;5.15;;
26052;SDS011;13826;51.186;4.450;2022-08-30T02:43:47;14.73;;;5.78;;
26052;SDS011;13826;51.186;4.450;2022-08-30T02:46:13;15.07;;;5.43;;
26052;SDS011;13826;51.186;4.450;2022-08-30T02:48:39;10.35;;;6.22;;
26052;SDS011;13826;51.186;4.450;2022-08-30T02:51:06;12.32;;;5.53;;
26052;SDS011;13826;51.186;4.450;2022-08-30T02:53:34;14.50;;;5.93;;
26052;SDS011;13826;51.186;4.450;2022-08-30T02:56:00;14.00;;;6.35;;
26052;SDS011;13826;51.186;4.450;2022-08-30T02:58:25;10.93;;;5.60;;
26052;SDS011;13826;51.186;4.450;2022-08-30T03:00:51;10.95;;;5.78;;
26052;SDS011;13826;51.186;4.450;2022-08-30T03:03:17;10.77;;;5.90;;
26052;SDS011;13826;51.186;4.450;2022-08-30T03:05:43;11.98;;;5.78;;
26052;SDS011;13826;51.186;4.450;2022-08-30T03:08:08;13.88;;;5.72;;
26052;SDS011;13826;51.186;4.450;2022-08-30T03:10:35;11.65;;;5.47;;
26052;SDS011;13826;51.186;4.450;2022-08-30T03:13:02;12.40;;;6.00;;
26052;SDS011;13826;51.186;4.450;2022-08-30T03:15:31;10.38;;;5.43;;
26052;SDS011;13826;51.186;4.450;2022-08-30T03:17:58;12.77;;;5.95;;
26052;SDS011;13826;51.186;4.450;2022-08-30T03:20:24;13.80;;;5.32;;
26052;SDS011;13826;51.186;4.450;2022-08-30T03:22:51;11.57;;;5.55;;
26052;SDS011;13826;51.186;4.450;2022-08-30T03:25:17;11.10;;;5.47;;
26052;SDS011;13826;51.186;4.450;2022-08-30T03:27:44;13.40;;;6.13;;
26052;SDS011;13826;51.186;4.450;2022-08-30T03:30:10;14.50;;;5.82;;
26052;SDS011;13826;51.186;4.450;2022-08-30T03:32:37;10.18;;;5.47;;
26052;SDS011;13826;51.186;4.450;2022-08-30T03:35:03;10.02;;;5.45;;
26052;SDS011;13826;51.186;4.450;2022-08-30T03:37:29;16.85;;;6.45;;
26052;SDS011;13826;51.186;4.450;2022-08-30T03:39:55;11.23;;;6.18;;
26052;SDS011;13826;51.186;4.450;2022-08-30T03:42:21;10.80;;;6.55;;
26052;SDS011;13826;51.186;4.450;2022-08-30T03:44:47;13.40;;;6.13;;
26052;SDS011;13826;51.186;4.450;2022-08-30T03:47:12;9.07;;;6.03;;
26052;SDS011;13826;51.186;4.450;2022-08-30T03:49:38;18.15;;;6.82;;
26052;SDS011;13826;51.186;4.450;2022-08-30T03:52:04;10.60;;;6.18;;
26052;SDS011;13826;51.186;4.450;2022-08-30T03:54:30;10.85;;;5.95;;
26052;SDS011;13826;51.186;4.450;2022-08-30T03:56:56;9.85;;;6.15;;
26052;SDS011;13826;51.186;4.450;2022-08-30T03:59:22;12.85;;;6.40;;
26052;SDS011;13826;51.186;4.450;2022-08-30T04:01:48;16.98;;;7.78;;
26052;SDS011;13826;51.186;4.450;2022-08-30T04:04:14;13.45;;;6.93;;
26052;SDS011;13826;51.186;4.450;2022-08-30T04:06:39;14.30;;;6.72;;
26052;SDS011;13826;51.186;4.450;2022-08-30T04:09:06;14.32;;;6.53;;
26052;SDS011;13826;51.186;4.450;2022-08-30T04:11:31;10.63;;;6.75;;
26052;SDS011;13826;51.186;4.450;2022-08-30T04:13:57;13.55;;;6.38;;
26052;SDS011;13826;51.186;4.450;2022-08-30T04:16:23;10.10;;;6.60;;
26052;SDS011;13826;51.186;4.450;2022-08-30T04:18:49;8.43;;;6.07;;
26052;SDS011;13826;51.186;4.450;2022-08-30T04:21:15;20.30;;;6.70;;
26052;SDS011;13826;51.186;4.450;2022-08-30T04:23:41;18.35;;;6.75;;
26052;SDS011;13826;51.186;4.450;2022-08-30T04:26:07;11.05;;;6.65;;
26052;SDS011;13826;51.186;4.450;2022-08-30T04:28:34;10.70;;;6.63;;
26052;SDS011;13826;51.186;4.450;2022-08-30T04:31:00;14.52;;;6.75;;
26052;SDS011;13826;51.186;4.450;2022-08-30T04:33:33;10.40;;;6.53;;
26052;SDS011;13826;51.186;4.450;2022-08-30T04:36:00;11.98;;;6.88;;
26052;SDS011;13826;51.186;4.450;2022-08-30T04:38:32;14.93;;;6.95;;
26052;SDS011;13826;51.186;4.450;2022-08-30T04:40:58;11.63;;;7.53;;
26052;SDS011;13826;51.186;4.450;2022-08-30T04:43:24;19.35;;;8.25;;
26052;SDS011;13826;51.186;4.450;2022-08-30T04:45:51;11.75;;;7.28;;
26052;SDS011;13826;51.186;4.450;2022-08-30T04:48:18;9.27;;;6.53;;
26052;SDS011;13826;51.186;4.450;2022-08-30T04:50:45;12.13;;;7.65;;
26052;SDS011;13826;51.186;4.450;2022-08-30T04:53:11;12.20;;;6.90;;
26052;SDS011;13826;51.186;4.450;2022-08-30T04:55:38;11.18;;;6.93;;
26052;SDS011;13826;51.186;4.450;2022-08-30T04:58:04;10.80;;;6.55;;
26052;SDS011;13826;51.186;4.450;2022-08-30T05:00:30;14.35;;;6.68;;
26052;SDS011;13826;51.186;4.450;2022-08-30T05:02:56;10.60;;;8.00;;
26052;SDS011;13826;51.186;4.450;2022-08-30T05:05:22;14.02;;;7.00;;
26052;SDS011;13826;51.186;4.450;2022-08-30T05:08:10;11.05;;;6.50;;
26052;SDS011;13826;51.186;4.450;2022-08-30T05:10:41;17.70;;;11.77;;
26052;SDS011;13826;51.186;4.450;2022-08-30T05:13:08;11.02;;;7.50;;
26052;SDS011;13826;51.186;4.450;2022-08-30T05:15:35;12.23;;;7.47;;
26052;SDS011;13826;51.186;4.450;2022-08-30T05:18:04;14.05;;;7.70;;
26052;SDS011;13826;51.186;4.450;2022-08-30T05:20:31;20.63;;;8.05;;
26052;SDS011;13826;51.186;4.450;2022-08-30T05:22:59;10.80;;;7.07;;
26052;SDS011;13826;51.186;4.450;2022-08-30T05:25:26;13.93;;;7.25;;
26052;SDS011;13826;51.186;4.450;2022-08-30T05:27:56;10.75;;;7.47;;
26052;SDS011;13826;51.186;4.450;2022-08-30T05:30:23;14.95;;;7.78;;
26052;SDS011;13826;51.186;4.450;2022-08-30T05:32:51;10.75;;;7.28;;
26052;SDS011;13826;51.186;4.450;2022-08-30T05:35:18;12.95;;;7.65;;
26052;SDS011;13826;51.186;4.450;2022-08-30T05:37:44;13.35;;;7.47;;
26052;SDS011;13826;51.186;4.450;2022-08-30T05:40:10;12.98;;;8.18;;
26052;SDS011;13826;51.186;4.450;2022-08-30T05:42:37;11.23;;;7.63;;
26052;SDS011;13826;51.186;4.450;2022-08-30T05:45:05;10.98;;;7.68;;
26052;SDS011;13826;51.186;4.450;2022-08-30T05:47:32;14.30;;;8.48;;
26052;SDS011;13826;51.186;4.450;2022-08-30T05:49:58;18.33;;;8.48;;
26052;SDS011;13826;51.186;4.450;2022-08-30T05:52:23;14.95;;;8.30;;
26052;SDS011;13826;51.186;4.450;2022-08-30T05:54:53;13.18;;;8.43;;
26052;SDS011;13826;51.186;4.450;2022-08-30T05:59:48;14.77;;;8.38;;
26052;SDS011;13826;51.186;4.450;2022-08-30T06:02:14;10.25;;;7.90;;
26052;SDS011;13826;51.186;4.450;2022-08-30T06:04:40;14.48;;;8.23;;
26052;SDS011;13826;51.186;4.450;2022-08-30T06:07:05;10.93;;;7.70;;
26052;SDS011;13826;51.186;4.450;2022-08-30T06:09:31;10.15;;;7.80;;
26052;SDS011;13826;51.186;4.450;2022-08-30T06:11:57;15.40;;;8.25;;
26052;SDS011;13826;51.186;4.450;2022-08-30T06:14:23;12.80;;;7.20;;
26052;SDS011;13826;51.186;4.450;2022-08-30T06:16:49;9.52;;;7.47;;
26052;SDS011;13826;51.186;4.450;2022-08-30T06:19:16;12.80;;;6.95;;
26052;SDS011;13826;51.186;4.450;2022-08-30T06:21:43;9.95;;;6.93;;
26052;SDS011;13826;51.186;4.450;2022-08-30T06:24:12;10.60;;;7.07;;
26052;SDS011;13826;51.186;4.450;2022-08-30T06:26:39;15.65;;;7.95;;
26052;SDS011;13826;51.186;4.450;2022-08-30T06:29:07;16.20;;;8.18;;
26052;SDS011;13826;51.186;4.450;2022-08-30T06:31:34;12.82;;;8.05;;
26052;SDS011;13826;51.186;4.450;2022-08-30T06:34:00;14.88;;;7.20;;
26052;SDS011;13826;51.186;4.450;2022-08-30T06:36:26;15.45;;;6.95;;
26052;SDS011;13826;51.186;4.450;2022-08-30T06:38:52;16.67;;;7.30;;
26052;SDS011;13826;51.186;4.450;2022-08-30T06:41:20;10.30;;;7.10;;
26052;SDS011;13826;51.186;4.450;2022-08-30T06:43:48;11.88;;;7.63;;
26052;SDS011;13826;51.186;4.450;2022-08-30T06:46:16;9.50;;;6.70;;
26052;SDS011;13826;51.186;4.450;2022-08-30T06:48:45;13.52;;;7.38;;
26052;SDS011;13826;51.186;4.450;2022-08-30T06:51:11;20.98;;;7.60;;
26052;SDS011;13826;51.186;4.450;2022-08-30T06:53:37;13.93;;;6.82;;
26052;SDS011;13826;51.186;4.450;2022-08-30T06:56:05;12.73;;;8.07;;
26052;SDS011;13826;51.186;4.450;2022-08-30T06:58:33;13.30;;;7.30;;
26052;SDS011;13826;51.186;4.450;2022-08-30T07:01:01;9.85;;;6.88;;
26052;SDS011;13826;51.186;4.450;2022-08-30T07:03:30;16.77;;;7.82;;
26052;SDS011;13826;51.186;4.450;2022-08-30T07:05:56;15.63;;;7.95;;
26052;SDS011;13826;51.186;4.450;2022-08-30T07:08:24;10.95;;;6.93;;
26052;SDS011;13826;51.186;4.450;2022-08-30T07:10:51;13.10;;;7.38;;
26052;SDS011;13826;51.186;4.450;2022-08-30T07:13:18;15.75;;;7.70;;
26052;SDS011;13826;51.186;4.450;2022-08-30T07:15:45;10.18;;;6.68;;
26052;SDS011;13826;51.186;4.450;2022-08-30T07:18:12;11.02;;;7.03;;
26052;SDS011;13826;51.186;4.450;2022-08-30T07:20:57;15.07;;;7.50;;
26052;SDS011;13826;51.186;4.450;2022-08-30T07:23:29;11.77;;;6.88;;
26052;SDS011;13826;51.186;4.450;2022-08-30T07:25:54;13.43;;;7.32;;
26052;SDS011;13826;51.186;4.450;2022-08-30T07:28:20;13.18;;;7.38;;
26052;SDS011;13826;51.186;4.450;2022-08-30T07:30:46;10.63;;;7.47;;
26052;SDS011;13826;51.186;4.450;2022-08-30T07:33:12;10.38;;;6.97;;
26052;SDS011;13826;51.186;4.450;2022-08-30T07:35:38;11.60;;;7.72;;
26052;SDS011;13826;51.186;4.450;2022-08-30T07:38:03;12.38;;;7.90;;
26052;SDS011;13826;51.186;4.450;2022-08-30T07:40:29;13.70;;;7.72;;
26052;SDS011;13826;51.186;4.450;2022-08-30T07:42:55;14.73;;;7.40;;
26052;SDS011;13826;51.186;4.450;2022-08-30T07:45:21;9.23;;;7.10;;
26052;SDS011;13826;51.186;4.450;2022-08-30T07:47:46;11.52;;;7.50;;
26052;SDS011;13826;51.186;4.450;2022-08-30T07:50:12;10.95;;;7.63;;
26052;SDS011;13826;51.186;4.450;2022-08-30T07:52:38;13.57;;;7.03;;
26052;SDS011;13826;51.186;4.450;2022-08-30T07:55:04;11.85;;;8.23;;
26052;SDS011;13826;51.186;4.450;2022-08-30T07:57:30;13.30;;;7.30;;
26052;SDS011;13826;51.186;4.450;2022-08-30T07:59:58;11.50;;;7.28;;
26052;SDS011;13826;51.186;4.450;2022-08-30T08:02:24;14.02;;;7.68;;
26052;SDS011;13826;51.186;4.450;2022-08-30T08:04:50;10.35;;;7.80;;
26052;SDS011;13826;51.186;4.450;2022-08-30T08:07:16;10.45;;;7.00;;
26052;SDS011;13826;51.186;4.450;2022-08-30T08:09:42;11.10;;;6.93;;
26052;SDS011;13826;51.186;4.450;2022-08-30T08:12:08;10.43;;;7.38;;
26052;SDS011;13826;51.186;4.450;2022-08-30T08:14:34;13.43;;;7.28;;
26052;SDS011;13826;51.186;4.450;2022-08-30T08:17:00;13.80;;;6.55;;
26052;SDS011;13826;51.186;4.450;2022-08-30T08:19:27;14.05;;;7.05;;
26052;SDS011;13826;51.186;4.450;2022-08-30T08:21:52;15.00;;;6.70;;
26052;SDS011;13826;51.186;4.450;2022-08-30T08:24:21;9.57;;;6.40;;
26052;SDS011;13826;51.186;4.450;2022-08-30T08:26:47;10.32;;;6.22;;
26052;SDS011;13826;51.186;4.450;2022-08-30T08:29:13;16.83;;;5.95;;
26052;SDS011;13826;51.186;4.450;2022-08-30T08:31:39;13.40;;;6.53;;
26052;SDS011;13826;51.186;4.450;2022-08-30T08:34:05;12.73;;;6.30;;
26052;SDS011;13826;51.186;4.450;2022-08-30T08:36:32;10.15;;;5.72;;
26052;SDS011;13826;51.186;4.450;2022-08-30T08:38:59;10.63;;;5.15;;
26052;SDS011;13826;51.186;4.450;2022-08-30T08:44:24;9.37;;;5.00;;
26052;SDS011;13826;51.186;4.450;2022-08-30T08:49:44;11.18;;;5.00;;
26052;SDS011;13826;51.186;4.450;2022-08-30T08:52:13;9.15;;;5.35;;
26052;SDS011;13826;51.186;4.450;2022-08-30T08:55:09;9.25;;;5.78;;
26052;SDS011;13826;51.186;4.450;2022-08-30T08:57:38;7.75;;;5.45;;
26052;SDS011;13826;51.186;4.450;2022-08-30T09:00:08;11.07;;;5.75;;
26052;SDS011;13826;51.186;4.450;2022-08-30T09:02:43;17.48;;;5.97;;
26052;SDS011;13826;51.186;4.450;2022-08-30T09:05:20;30.05;;;5.70;;
26052;SDS011;13826;51.186;4.450;2022-08-30T09:07:56;16.88;;;5.30;;
26052;SDS011;13826;51.186;4.450;2022-08-30T09:10:28;10.23;;;5.03;;
26052;SDS011;13826;51.186;4.450;2022-08-30T09:12:56;12.65;;;5.18;;
26052;SDS011;13826;51.186;4.450;2022-08-30T09:15:24;11.02;;;5.32;;
26052;SDS011;13826;51.186;4.450;2022-08-30T09:23:36;7.93;;;5.20;;
26052;SDS011;13826;51.186;4.450;2022-08-30T09:28:34;10.68;;;5.32;;
26052;SDS011;13826;51.186;4.450;2022-08-30T09:31:22;10.32;;;4.78;;
26052;SDS011;13826;51.186;4.450;2022-08-30T09:34:00;13.38;;;5.43;;
26052;SDS011;13826;51.186;4.450;2022-08-30T09:36:33;9.00;;;4.82;;
26052;SDS011;13826;51.186;4.450;2022-08-30T09:39:06;10.73;;;4.38;;
26052;SDS011;13826;51.186;4.450;2022-08-30T09:41:42;7.22;;;4.18;;
26052;SDS011;13826;51.186;4.450;2022-08-30T09:44:14;6.72;;;4.55;;
26052;SDS011;13826;51.186;4.450;2022-08-30T09:46:44;7.90;;;5.35;;
26052;SDS011;13826;51.186;4.450;2022-08-30T09:49:37;11.30;;;4.28;;
26052;SDS011;13826;51.186;4.450;2022-08-30T10:08:00;8.10;;;4.38;;
26052;SDS011;13826;51.186;4.450;2022-08-30T10:16:14;8.15;;;4.25;;
26052;SDS011;13826;51.186;4.450;2022-08-30T10:21:37;7.13;;;4.30;;
26052;SDS011;13826;51.186;4.450;2022-08-30T10:24:10;7.38;;;4.80;;
26052;SDS011;13826;51.186;4.450;2022-08-30T10:26:49;15.45;;;4.10;;
26052;SDS011;13826;51.186;4.450;2022-08-30T10:29:21;8.43;;;4.07;;
26052;SDS011;13826;51.186;4.450;2022-08-30T10:31:57;7.13;;;4.05;;
26052;SDS011;13826;51.186;4.450;2022-08-30T10:34:37;9.07;;;4.22;;
26052;SDS011;13826;51.186;4.450;2022-08-30T10:37:12;9.52;;;4.45;;
26052;SDS011;13826;51.186;4.450;2022-08-30T10:39:49;9.88;;;4.63;;
26052;SDS011;13826;51.186;4.450;2022-08-30T10:42:19;7.65;;;4.18;;
26052;SDS011;13826;51.186;4.450;2022-08-30T10:44:56;7.00;;;3.60;;
26052;SDS011;13826;51.186;4.450;2022-08-30T10:50:19;6.05;;;3.78;;
26052;SDS011;13826;51.186;4.450;2022-08-30T10:55:41;9.95;;;4.22;;
26052;SDS011;13826;51.186;4.450;2022-08-30T10:58:20;9.02;;;3.83;;
26052;SDS011;13826;51.186;4.450;2022-08-30T11:06:13;7.00;;;3.50;;
26052;SDS011;13826;51.186;4.450;2022-08-30T11:14:05;7.72;;;3.42;;
26052;SDS011;13826;51.186;4.450;2022-08-30T11:16:35;6.18;;;3.60;;
26052;SDS011;13826;51.186;4.450;2022-08-30T11:19:11;7.78;;;4.30;;
26052;SDS011;13826;51.186;4.450;2022-08-30T11:22:07;6.97;;;3.90;;
26052;SDS011;13826;51.186;4.450;2022-08-30T11:33:04;7.95;;;3.63;;
26052;SDS011;13826;51.186;4.450;2022-08-30T11:35:54;5.25;;;3.15;;
26052;SDS011;13826;51.186;4.450;2022-08-30T11:48:52;7.07;;;3.47;;
26052;SDS011;13826;51.186;4.450;2022-08-30T11:59:19;9.45;;;2.95;;
26052;SDS011;13826;51.186;4.450;2022-08-30T12:01:49;8.05;;;3.10;;
26052;SDS011;13826;51.186;4.450;2022-08-30T12:09:11;7.00;;;2.42;;
26052;SDS011;13826;51.186;4.450;2022-08-30T12:12:10;7.50;;;2.65;;
26052;SDS011;13826;51.186;4.450;2022-08-30T12:14:56;4.88;;;2.58;;
26052;SDS011;13826;51.186;4.450;2022-08-30T12:22:47;6.45;;;2.92;;
26052;SDS011;13826;51.186;4.450;2022-08-30T12:25:16;6.75;;;3.28;;
26052;SDS011;13826;51.186;4.450;2022-08-30T12:27:47;7.43;;;2.67;;
26052;SDS011;13826;51.186;4.450;2022-08-30T12:30:13;6.68;;;3.00;;
26052;SDS011;13826;51.186;4.450;2022-08-30T12:32:43;4.28;;;2.47;;
26052;SDS011;13826;51.186;4.450;2022-08-30T12:35:19;6.60;;;2.30;;
26052;SDS011;13826;51.186;4.450;2022-08-30T12:38:22;9.48;;;3.08;;
26052;SDS011;13826;51.186;4.450;2022-08-30T12:40:53;7.40;;;2.33;;
26052;SDS011;13826;51.186;4.450;2022-08-30T12:43:26;7.32;;;2.60;;
26052;SDS011;13826;51.186;4.450;2022-08-30T12:46:04;8.10;;;2.60;;
26052;SDS011;13826;51.186;4.450;2022-08-30T12:48:34;6.55;;;2.35;;
26052;SDS011;13826;51.186;4.450;2022-08-30T12:51:02;10.43;;;2.42;;
26052;SDS011;13826;51.186;4.450;2022-08-30T12:56:00;10.02;;;2.83;;
26052;SDS011;13826;51.186;4.450;2022-08-30T13:01:26;10.68;;;2.28;;
26052;SDS011;13826;51.186;4.450;2022-08-30T13:03:55;8.60;;;2.40;;
26052;SDS011;13826;51.186;4.450;2022-08-30T13:06:52;7.10;;;2.47;;
26052;SDS011;13826;51.186;4.450;2022-08-30T13:09:41;5.20;;;2.35;;
26052;SDS011;13826;51.186;4.450;2022-08-30T13:12:21;6.68;;;2.25;;
26052;SDS011;13826;51.186;4.450;2022-08-30T13:14:48;8.00;;;2.50;;
26052;SDS011;13826;51.186;4.450;2022-08-30T13:19:44;4.63;;;2.03;;
26052;SDS011;13826;51.186;4.450;2022-08-30T13:22:39;14.48;;;3.67;;
26052;SDS011;13826;51.186;4.450;2022-08-30T13:25:07;10.45;;;2.60;;
26052;SDS011;13826;51.186;4.450;2022-08-30T13:27:35;19.52;;;2.92;;
26052;SDS011;13826;51.186;4.450;2022-08-30T13:30:08;11.70;;;2.40;;
26052;SDS011;13826;51.186;4.450;2022-08-30T13:32:37;9.65;;;3.05;;
26052;SDS011;13826;51.186;4.450;2022-08-30T13:35:03;13.98;;;2.90;;
26052;SDS011;13826;51.186;4.450;2022-08-30T13:37:30;10.90;;;2.70;;
26052;SDS011;13826;51.186;4.450;2022-08-30T13:39:56;8.75;;;2.67;;
26052;SDS011;13826;51.186;4.450;2022-08-30T13:42:22;4.85;;;2.00;;
26052;SDS011;13826;51.186;4.450;2022-08-30T13:44:47;6.43;;;2.45;;
26052;SDS011;13826;51.186;4.450;2022-08-30T13:47:13;4.32;;;2.10;;
26052;SDS011;13826;51.186;4.450;2022-08-30T13:49:40;8.68;;;2.42;;
26052;SDS011;13826;51.186;4.450;2022-08-30T13:52:08;8.13;;;2.33;;
26052;SDS011;13826;51.186;4.450;2022-08-30T13:54:35;8.05;;;2.80;;
26052;SDS011;13826;51.186;4.450;2022-08-30T13:57:00;9.60;;;2.13;;
26052;SDS011;13826;51.186;4.450;2022-08-30T13:59:26;7.43;;;2.08;;
26052;SDS011;13826;51.186;4.450;2022-08-30T14:01:53;5.45;;;2.20;;
26052;SDS011;13826;51.186;4.450;2022-08-30T14:04:20;16.67;;;3.00;;
26052;SDS011;13826;51.186;4.450;2022-08-30T14:06:45;9.50;;;1.88;;
26052;SDS011;13826;51.186;4.450;2022-08-30T14:09:11;3.40;;;2.03;;
26052;SDS011;13826;51.186;4.450;2022-08-30T14:11:38;4.70;;;1.70;;
26052;SDS011;13826;51.186;4.450;2022-08-30T14:14:04;6.90;;;2.10;;
26052;SDS011;13826;51.186;4.450;2022-08-30T14:16:30;7.18;;;1.92;;
26052;SDS011;13826;51.186;4.450;2022-08-30T14:18:57;3.88;;;2.58;;
26052;SDS011;13826;51.186;4.450;2022-08-30T14:21:24;6.13;;;2.50;;
26052;SDS011;13826;51.186;4.450;2022-08-30T14:23:50;4.97;;;1.92;;
26052;SDS011;13826;51.186;4.450;2022-08-30T14:26:20;4.70;;;1.98;;
26052;SDS011;13826;51.186;4.450;2022-08-30T14:28:48;8.82;;;2.33;;
26052;SDS011;13826;51.186;4.450;2022-08-30T14:31:14;12.82;;;3.00;;
26052;SDS011;13826;51.186;4.450;2022-08-30T14:33:40;9.68;;;2.08;;
26052;SDS011;13826;51.186;4.450;2022-08-30T14:36:07;3.92;;;1.83;;
26052;SDS011;13826;51.186;4.450;2022-08-30T14:38:33;13.48;;;2.28;;
26052;SDS011;13826;51.186;4.450;2022-08-30T14:41:00;15.98;;;2.78;;
26052;SDS011;13826;51.186;4.450;2022-08-30T14:43:28;6.38;;;2.08;;
26052;SDS011;13826;51.186;4.450;2022-08-30T14:45:56;9.43;;;2.47;;
26052;SDS011;13826;51.186;4.450;2022-08-30T14:48:22;7.47;;;2.20;;
26052;SDS011;13826;51.186;4.450;2022-08-30T14:50:48;8.13;;;2.38;;
26052;SDS011;13826;51.186;4.450;2022-08-30T14:53:14;5.90;;;2.10;;
26052;SDS011;13826;51.186;4.450;2022-08-30T14:55:40;3.88;;;1.92;;
26052;SDS011;13826;51.186;4.450;2022-08-30T14:58:05;9.65;;;2.08;;
26052;SDS011;13826;51.186;4.450;2022-08-30T15:00:33;8.68;;;2.05;;
26052;SDS011;13826;51.186;4.450;2022-08-30T15:02:58;6.32;;;2.13;;
26052;SDS011;13826;51.186;4.450;2022-08-30T15:05:24;8.38;;;2.08;;
26052;SDS011;13826;51.186;4.450;2022-08-30T15:07:50;9.15;;;2.00;;
26052;SDS011;13826;51.186;4.450;2022-08-30T15:10:17;6.38;;;2.13;;
26052;SDS011;13826;51.186;4.450;2022-08-30T15:12:45;5.20;;;2.13;;
26052;SDS011;13826;51.186;4.450;2022-08-30T15:15:13;9.05;;;2.35;;
26052;SDS011;13826;51.186;4.450;2022-08-30T15:17:41;7.47;;;2.03;;
26052;SDS011;13826;51.186;4.450;2022-08-30T15:20:08;9.98;;;2.10;;
26052;SDS011;13826;51.186;4.450;2022-08-30T15:22:35;8.23;;;2.03;;
26052;SDS011;13826;51.186;4.450;2022-08-30T15:25:00;9.35;;;2.15;;
26052;SDS011;13826;51.186;4.450;2022-08-30T15:27:27;5.30;;;1.95;;
26052;SDS011;13826;51.186;4.450;2022-08-30T15:29:52;14.15;;;1.83;;
26052;SDS011;13826;51.186;4.450;2022-08-30T15:32:18;9.23;;;1.73;;
26052;SDS011;13826;51.186;4.450;2022-08-30T15:34:44;6.68;;;1.73;;
26052;SDS011;13826;51.186;4.450;2022-08-30T15:37:09;12.18;;;2.45;;
26052;SDS011;13826;51.186;4.450;2022-08-30T15:39:35;7.22;;;2.20;;
26052;SDS011;13826;51.186;4.450;2022-08-30T15:42:01;6.85;;;2.28;;
26052;SDS011;13826;51.186;4.450;2022-08-30T15:44:27;7.03;;;2.00;;
26052;SDS011;13826;51.186;4.450;2022-08-30T15:46:54;5.40;;;1.65;;
26052;SDS011;13826;51.186;4.450;2022-08-30T15:49:20;11.43;;;2.20;;
26052;SDS011;13826;51.186;4.450;2022-08-30T15:51:47;4.53;;;2.10;;
26052;SDS011;13826;51.186;4.450;2022-08-30T15:54:15;5.38;;;2.17;;
26052;SDS011;13826;51.186;4.450;2022-08-30T15:56:42;10.60;;;2.05;;
26052;SDS011;13826;51.186;4.450;2022-08-30T15:59:08;6.90;;;2.22;;
26052;SDS011;13826;51.186;4.450;2022-08-30T16:01:35;5.93;;;2.50;;
26052;SDS011;13826;51.186;4.450;2022-08-30T16:04:01;9.10;;;2.00;;
26052;SDS011;13826;51.186;4.450;2022-08-30T16:06:29;7.15;;;1.92;;
26052;SDS011;13826;51.186;4.450;2022-08-30T16:08:58;4.47;;;2.10;;
26052;SDS011;13826;51.186;4.450;2022-08-30T16:11:24;7.75;;;2.95;;
26052;SDS011;13826;51.186;4.450;2022-08-30T16:13:51;10.50;;;1.95;;
26052;SDS011;13826;51.186;4.450;2022-08-30T16:16:19;4.97;;;2.00;;
26052;SDS011;13826;51.186;4.450;2022-08-30T16:18:46;8.00;;;2.33;;
26052;SDS011;13826;51.186;4.450;2022-08-30T16:21:14;4.40;;;1.83;;
26052;SDS011;13826;51.186;4.450;2022-08-30T16:23:42;9.13;;;1.92;;
26052;SDS011;13826;51.186;4.450;2022-08-30T16:26:08;103.13;;;7.63;;
26052;SDS011;13826;51.186;4.450;2022-08-30T16:28:36;4.90;;;2.15;;
26052;SDS011;13826;51.186;4.450;2022-08-30T16:31:03;8.85;;;2.33;;